Time;durP1;ratioP1;P1;durP2;ratioP2;P2;SDS_P1;SDS_P2;PMS_P1;PMS_P2;Temp;Humidity;BMP_temperature;BMP_pressure;BME280_temperature;BME280_humidity;BME280_pressure;Samples;Min_cycle;Max_cycle;Signal;HPM_P1;HPM_P2
2023/07/20 00:00:53;;;;;;;13.43;4.80;;;;;;;16.21;100.00;100998.66;5006762;28;20128;-76
2023/07/20 00:03:23;;;;;;;10.70;4.82;;;;;;;16.14;100.00;100985.63;5005528;28;20505;-75
2023/07/20 00:05:49;;;;;;;13.52;5.15;;;;;;;16.21;100.00;100990.25;5002029;28;20046;-75
2023/07/20 00:08:17;;;;;;;12.75;5.35;;;;;;;16.22;100.00;100995.41;5008425;28;20123;-74
2023/07/20 00:10:44;;;;;;;12.98;5.13;;;;;;;16.16;100.00;100990.78;5005156;28;20664;-75
2023/07/20 00:13:11;;;;;;;14.02;5.10;;;;;;;16.14;100.00;100988.44;5002737;28;20126;-75
2023/07/20 00:15:37;;;;;;;9.90;5.13;;;;;;;16.24;100.00;100984.50;5006709;28;20054;-77
2023/07/20 00:18:05;;;;;;;12.80;4.45;;;;;;;16.34;100.00;100985.44;5001797;28;20042;-76
2023/07/20 00:20:31;;;;;;;11.68;5.07;;;;;;;16.36;100.00;100989.38;5003715;28;20060;-75
2023/07/20 00:22:58;;;;;;;10.27;5.07;;;;;;;16.23;100.00;100979.34;5009317;28;20068;-76
2023/07/20 00:25:25;;;;;;;12.00;4.97;;;;;;;16.20;100.00;100983.06;5007676;28;20045;-76
2023/07/20 00:27:52;;;;;;;15.48;5.35;;;;;;;16.20;100.00;100983.06;5001553;28;20104;-76
2023/07/20 00:30:20;;;;;;;12.57;5.40;;;;;;;16.24;100.00;100981.69;5006405;28;20046;-75
2023/07/20 00:32:46;;;;;;;15.40;5.35;;;;;;;16.19;100.00;100976.66;5008532;28;20342;-75
2023/07/20 00:35:13;;;;;;;10.40;4.80;;;;;;;16.21;100.00;100976.22;5008030;28;20525;-76
2023/07/20 00:37:40;;;;;;;12.45;5.30;;;;;;;16.14;100.00;100974.41;5005345;28;20128;-77
2023/07/20 00:40:07;;;;;;;10.57;5.13;;;;;;;16.19;100.00;100968.25;5006666;28;20093;-75
2023/07/20 00:42:34;;;;;;;12.90;5.65;;;;;;;16.18;100.00;100969.50;4997729;28;20046;-73
2023/07/20 00:45:00;;;;;;;14.02;5.75;;;;;;;16.19;100.00;100979.47;5006702;28;20058;-75
2023/07/20 00:47:27;;;;;;;16.35;5.30;;;;;;;16.13;100.00;100966.47;5004317;28;20061;-76
2023/07/20 00:49:54;;;;;;;11.73;4.68;;;;;;;16.12;100.00;100974.09;5004662;28;20080;-74
2023/07/20 00:52:24;;;;;;;14.93;5.22;;;;;;;16.12;100.00;100974.09;5006143;28;20054;-75
2023/07/20 00:54:51;;;;;;;10.98;5.15;;;;;;;16.10;100.00;100970.19;5006842;28;20049;-75
2023/07/20 00:57:19;;;;;;;12.23;5.32;;;;;;;16.13;100.00;100972.09;5002064;28;20042;-76
2023/07/20 00:59:45;;;;;;;12.27;5.22;;;;;;;16.11;100.00;100975.34;5007120;28;20060;-75
2023/07/20 01:02:12;;;;;;;14.93;5.43;;;;;;;16.01;100.00;100970.84;5004028;28;20053;-76
2023/07/20 01:04:38;;;;;;;14.23;6.07;;;;;;;16.05;100.00;100974.31;5006973;28;20161;-76
2023/07/20 01:07:05;;;;;;;14.45;5.28;;;;;;;15.99;100.00;100969.69;5006881;28;20145;-76
2023/07/20 01:09:39;;;;;;;17.92;6.57;;;;;;;15.97;100.00;100970.16;5006834;28;20089;-75
2023/07/20 01:12:15;;;;;;;16.00;5.80;;;;;;;15.98;100.00;100970.94;5007762;28;20049;-76
2023/07/20 01:14:42;;;;;;;13.43;5.65;;;;;;;15.91;100.00;100969.16;4984869;28;20089;-76
2023/07/20 01:17:09;;;;;;;13.98;5.88;;;;;;;15.96;100.00;100973.41;5006880;28;20132;-76
2023/07/20 01:19:35;;;;;;;15.98;6.63;;;;;;;15.94;100.00;100978.69;4998046;28;20050;-74
2023/07/20 01:22:33;;;;;;;14.88;6.30;;;;;;;15.94;100.00;100975.88;4982698;28;20073;-75
2023/07/20 01:25:21;;;;;;;15.57;6.20;;;;;;;15.85;100.00;100968.16;5001586;28;20555;-76
2023/07/20 01:28:19;;;;;;;17.60;7.35;;;;;;;15.77;100.00;100969.59;5004746;28;20502;-75
2023/07/20 01:30:55;;;;;;;13.43;6.25;;;;;;;15.88;100.00;100963.66;4997251;28;20041;-75
2023/07/20 01:33:25;;;;;;;18.25;7.47;;;;;;;15.83;100.00;100962.19;5004782;28;20081;-75
2023/07/20 01:35:56;;;;;;;16.20;6.75;;;;;;;15.79;100.00;100957.91;5004745;28;20053;-74
2023/07/20 01:38:37;;;;;;;15.60;7.22;;;;;;;15.81;100.00;100949.84;4999941;28;20082;-74
2023/07/20 01:41:05;;;;;;;16.02;8.10;;;;;;;15.80;100.00;100953.91;5000495;28;20465;-74
2023/07/20 01:43:31;;;;;;;16.65;7.45;;;;;;;15.79;100.00;100944.69;5005664;28;20120;-75
2023/07/20 01:45:58;;;;;;;19.63;7.60;;;;;;;15.87;100.00;100953.69;4993734;28;20073;-73
2023/07/20 01:48:24;;;;;;;17.45;7.60;;;;;;;15.86;100.00;100954.91;5008131;28;20050;-75
2023/07/20 01:50:51;;;;;;;16.05;8.20;;;;;;;15.76;100.00;100950.44;5007853;28;20058;-74
2023/07/20 01:53:18;;;;;;;17.38;8.82;;;;;;;15.70;100.00;100946.59;5005966;28;20510;-74
2023/07/20 01:55:44;;;;;;;14.85;7.28;;;;;;;15.76;100.00;100945.59;5008462;28;20046;-74
2023/07/20 01:58:11;;;;;;;17.13;7.20;;;;;;;15.69;100.00;100954.22;5006138;28;20748;-75
2023/07/20 02:00:38;;;;;;;19.42;8.82;;;;;;;15.68;100.00;100949.84;5008333;28;20533;-76
2023/07/20 02:03:05;;;;;;;16.73;7.72;;;;;;;15.68;100.00;100951.84;5005149;28;20042;-75
2023/07/20 02:05:31;;;;;;;17.42;7.30;;;;;;;15.80;100.00;100956.72;5000229;28;20149;-75
2023/07/20 02:07:58;;;;;;;18.98;8.20;;;;;;;15.86;100.00;100954.91;5008271;28;20058;-75
2023/07/20 02:10:25;;;;;;;16.42;8.25;;;;;;;15.98;100.00;100960.53;5008403;28;20061;-76
2023/07/20 02:12:51;;;;;;;20.13;10.30;;;;;;;16.05;100.00;100965.09;5008231;28;20050;-74
2023/07/20 02:15:18;;;;;;;20.67;8.52;;;;;;;16.04;100.00;100964.31;4996321;28;20077;-75
2023/07/20 02:17:45;;;;;;;19.30;10.02;;;;;;;16.01;100.00;100956.81;5007892;28;20046;-75
2023/07/20 02:20:12;;;;;;;21.20;10.73;;;;;;;16.02;100.00;100955.59;5007585;28;20518;-75
2023/07/20 02:22:39;;;;;;;19.60;10.55;;;;;;;16.08;100.00;100964.22;5006324;28;20129;-75
2023/07/20 02:25:07;;;;;;;20.75;10.98;;;;;;;16.01;100.00;100968.03;4994295;28;20127;-75
2023/07/20 02:27:34;;;;;;;20.67;10.52;;;;;;;15.94;100.00;100976.69;5007176;28;20370;-75
2023/07/20 02:30:01;;;;;;;20.30;11.10;;;;;;;15.88;100.00;100972.84;5001081;28;20087;-75
2023/07/20 02:32:28;;;;;;;19.92;10.20;;;;;;;15.83;100.00;100976.19;5004706;28;20108;-75
2023/07/20 02:34:54;;;;;;;21.13;10.73;;;;;;;15.73;100.00;100979.34;5000258;28;20119;-75
2023/07/20 02:37:21;;;;;;;20.08;10.05;;;;;;;15.77;100.00;100980.03;5008020;28;20128;-75
2023/07/20 02:39:47;;;;;;;23.17;10.23;;;;;;;15.80;100.00;100990.34;5010457;28;20112;-74
2023/07/20 02:42:14;;;;;;;18.45;8.65;;;;;;;15.62;100.00;100982.47;5012257;28;20077;-75
2023/07/20 02:44:40;;;;;;;21.80;10.48;;;;;;;15.66;100.00;100990.78;5003353;28;20058;-75
2023/07/20 02:47:07;;;;;;;20.77;9.35;;;;;;;15.57;100.00;100988.63;5010632;28;20513;-74
2023/07/20 02:49:34;;;;;;;19.33;8.95;;;;;;;15.52;100.00;100991.19;5011538;28;20120;-75
2023/07/20 02:52:01;;;;;;;23.65;10.57;;;;;;;15.43;100.00;100991.06;5010661;28;20090;-74
2023/07/20 02:54:30;;;;;;;18.83;9.95;;;;;;;15.42;100.00;101000.69;5001212;28;20054;-75
2023/07/20 02:56:56;;;;;;;20.02;10.73;;;;;;;15.48;100.00;101008.09;5012397;28;20042;-75
2023/07/20 02:59:23;;;;;;;18.88;9.75;;;;;;;15.30;100.00;101010.59;5010301;28;20045;-74
2023/07/20 03:01:50;;;;;;;23.15;10.85;;;;;;;15.33;100.00;101014.53;5011344;28;20080;-74
2023/07/20 03:04:16;;;;;;;21.10;10.85;;;;;;;15.34;100.00;101013.28;5010648;28;20053;-75
2023/07/20 03:06:43;;;;;;;24.10;11.68;;;;;;;15.41;100.00;101019.50;5010988;28;20074;-74
2023/07/20 03:09:10;;;;;;;23.25;10.95;;;;;;;15.40;100.00;101039.56;5011436;28;20038;-75
2023/07/20 03:11:36;;;;;;;24.35;10.85;;;;;;;15.35;100.00;101035.25;5011548;28;20085;-74
2023/07/20 03:14:03;;;;;;;24.90;11.35;;;;;;;15.34;100.00;101035.69;5011035;28;20042;-74
2023/07/20 03:16:32;;;;;;;23.13;11.75;;;;;;;15.26;100.00;101035.09;5011340;28;20073;-75
2023/07/20 03:19:00;;;;;;;25.70;12.80;;;;;;;15.35;100.00;101049.25;5006915;28;20049;-74
2023/07/20 03:21:27;;;;;;;26.48;12.30;;;;;;;15.32;100.00;101043.78;5011033;28;20050;-75
2023/07/20 03:23:53;;;;;;;22.27;12.48;;;;;;;15.31;100.00;101037.38;5003456;28;20111;-75
2023/07/20 03:26:20;;;;;;;25.80;13.60;;;;;;;15.32;100.00;101043.78;5011301;28;20112;-75
2023/07/20 03:28:47;;;;;;;25.02;12.43;;;;;;;15.28;100.00;101051.47;5007192;28;20049;-75
2023/07/20 03:31:14;;;;;;;23.00;12.88;;;;;;;15.26;100.00;101056.72;5011046;28;20125;-75
2023/07/20 03:33:42;;;;;;;28.10;15.43;;;;;;;15.31;100.00;101062.59;5010960;28;20096;-76
2023/07/20 03:36:10;;;;;;;25.55;14.82;;;;;;;15.39;100.00;101063.97;5005255;28;20473;-73
2023/07/20 03:38:36;;;;;;;33.20;16.13;;;;;;;15.48;100.00;101066.94;5010373;28;20577;-75
2023/07/20 03:41:03;;;;;;;28.40;15.80;;;;;;;15.54;100.00;101073.59;5010925;28;20145;-73
2023/07/20 03:43:29;;;;;;;30.42;15.80;;;;;;;15.46;100.00;101072.19;5008432;28;20456;-75
2023/07/20 03:45:59;;;;;;;27.88;16.25;;;;;;;15.39;100.00;101071.63;5011256;28;20124;-73
2023/07/20 03:48:26;;;;;;;27.20;15.20;;;;;;;15.35;100.00;101070.91;5010799;28;20129;-74
2023/07/20 03:50:54;;;;;;;26.92;15.55;;;;;;;15.34;100.00;101078.50;5002112;28;20103;-74
2023/07/20 03:53:21;;;;;;;26.90;16.65;;;;;;;15.35;100.00;101080.06;5010690;28;20512;-73
2023/07/20 03:55:49;;;;;;;28.38;17.55;;;;;;;15.38;100.00;101084.81;5010488;28;20062;-74
2023/07/20 03:58:16;;;;;;;31.98;17.80;;;;;;;15.35;100.00;101087.72;5001254;28;20042;-74
2023/07/20 04:00:47;;;;;;;27.30;16.15;;;;;;;15.32;100.00;101094.97;5001339;28;20137;-73
2023/07/20 04:03:14;;;;;;;29.73;17.55;;;;;;;15.34;100.00;101089.72;5010810;28;20069;-75
2023/07/20 04:05:42;;;;;;;26.13;16.35;;;;;;;15.33;100.00;101096.56;5008958;28;20088;-72
2023/07/20 04:08:08;;;;;;;28.58;16.98;;;;;;;15.31;100.00;101093.41;5002246;28;20080;-76
2023/07/20 04:10:35;;;;;;;30.73;17.50;;;;;;;15.32;100.00;101083.75;5010064;28;20077;-75
2023/07/20 04:13:01;;;;;;;37.53;20.98;;;;;;;15.33;100.00;101099.34;5008618;28;20056;-75
2023/07/20 04:15:28;;;;;;;36.65;20.95;;;;;;;15.36;100.00;101097.72;5005583;28;20302;-75
2023/07/20 04:17:56;;;;;;;34.88;20.80;;;;;;;15.38;100.00;101096.03;5009779;28;20426;-75
2023/07/20 04:20:23;;;;;;;33.25;19.90;;;;;;;15.42;100.00;101099.53;5008365;28;20046;-76
2023/07/20 04:22:50;;;;;;;29.17;19.08;;;;;;;15.46;100.00;101091.81;5010272;28;20050;-74
2023/07/20 04:25:17;;;;;;;33.55;18.60;;;;;;;15.45;100.00;101084.63;5002311;28;20435;-74
2023/07/20 04:27:44;;;;;;;30.55;19.13;;;;;;;15.44;100.00;101080.28;5005307;28;20541;-75
2023/07/20 04:30:11;;;;;;;33.78;19.63;;;;;;;15.44;100.00;101083.06;5004170;28;20042;-75
2023/07/20 04:32:44;;;;;;;28.73;19.25;;;;;;;15.43;100.00;101084.31;5001005;28;20693;-75
2023/07/20 04:35:10;;;;;;;34.15;19.25;;;;;;;15.42;100.00;101076.34;5005958;28;20051;-75
2023/07/20 04:37:37;;;;;;;27.00;15.18;;;;;;;15.40;100.00;101079.59;5007726;28;20112;-75
2023/07/20 04:40:04;;;;;;;26.38;14.63;;;;;;;15.45;100.00;101084.63;5010371;28;20042;-74
2023/07/20 04:42:31;;;;;;;24.27;14.32;;;;;;;15.47;100.00;101087.00;5004656;28;20046;-75
2023/07/20 04:44:57;;;;;;;27.48;15.18;;;;;;;15.47;100.00;101087.00;5008764;28;20161;-75
2023/07/20 04:47:24;;;;;;;28.05;16.50;;;;;;;15.47;100.00;101084.19;4992333;28;20046;-74
2023/07/20 04:49:51;;;;;;;25.95;15.02;;;;;;;15.39;100.00;101086.38;5009474;28;20042;-74
2023/07/20 04:52:17;;;;;;;24.15;14.90;;;;;;;15.40;100.00;101096.41;4992199;28;20513;-75
2023/07/20 04:54:44;;;;;;;25.45;15.68;;;;;;;15.40;100.00;101101.19;5007636;28;20082;-74
2023/07/20 04:57:11;;;;;;;26.02;15.45;;;;;;;15.39;100.00;101097.59;5000719;28;20069;-76
2023/07/20 04:59:38;;;;;;;24.40;14.35;;;;;;;15.42;100.00;101107.16;5008805;28;20046;-75
2023/07/20 05:02:05;;;;;;;22.33;13.57;;;;;;;15.40;100.00;101102.00;5009011;28;20414;-73
2023/07/20 05:04:31;;;;;;;23.92;13.90;;;;;;;15.40;100.00;101099.19;5008999;28;20054;-74
2023/07/20 05:07:04;;;;;;;22.88;13.85;;;;;;;15.42;100.00;101113.53;5008191;28;20046;-73
2023/07/20 05:09:31;;;;;;;24.10;15.02;;;;;;;15.47;100.00;101115.00;5006949;28;20054;-74
2023/07/20 05:11:57;;;;;;;23.00;13.27;;;;;;;15.48;100.00;101108.16;5005983;28;20081;-75
2023/07/20 05:14:24;;;;;;;26.42;14.70;;;;;;;15.50;100.00;101112.13;5002128;28;20077;-75
2023/07/20 05:16:51;;;;;;;22.08;12.38;;;;;;;15.58;100.00;101115.50;5008182;28;20446;-73
2023/07/20 05:19:17;;;;;;;19.70;11.35;;;;;;;15.59;100.00;101111.50;5007888;28;20053;-74
2023/07/20 05:21:44;;;;;;;20.85;11.77;;;;;;;15.68;100.00;101114.41;5006471;28;20501;-73
2023/07/20 05:24:11;;;;;;;18.85;11.00;;;;;;;15.69;100.00;101113.97;5008995;28;20038;-75
2023/07/20 05:26:38;;;;;;;22.08;11.77;;;;;;;15.64;100.00;101105.34;5006262;28;20085;-74
2023/07/20 05:29:04;;;;;;;21.83;10.75;;;;;;;15.74;100.00;101116.25;5008741;28;20497;-75
2023/07/20 05:31:31;;;;;;;20.35;10.73;;;;;;;15.76;100.00;101116.59;5008046;28;20476;-74
2023/07/20 05:33:58;;;;;;;17.92;9.57;;;;;;;15.77;100.00;101118.19;5009078;28;20052;-73
2023/07/20 05:36:24;;;;;;;19.33;9.77;;;;;;;15.69;100.00;101102.78;5005368;28;20053;-74
2023/07/20 05:38:51;;;;;;;18.42;10.02;;;;;;;15.76;100.00;101116.59;5005203;28;20458;-74
2023/07/20 05:41:17;;;;;;;19.77;9.93;;;;;;;15.73;100.00;101103.44;5001083;28;20046;-73
2023/07/20 05:43:44;;;;;;;19.92;10.65;;;;;;;15.78;100.00;101121.75;4999820;28;20106;-74
2023/07/20 05:46:10;;;;;;;17.15;9.60;;;;;;;15.66;100.00;101114.09;5007665;28;20081;-74
2023/07/20 05:48:37;;;;;;;18.02;9.40;;;;;;;15.66;100.00;101114.88;5003020;28;20057;-72
2023/07/20 05:51:04;;;;;;;17.35;9.07;;;;;;;15.66;100.00;101119.69;5008407;28;20046;-73
2023/07/20 05:53:31;;;;;;;16.98;9.20;;;;;;;15.64;100.00;101119.34;5006338;28;20099;-73
2023/07/20 05:55:57;;;;;;;18.02;9.13;;;;;;;15.63;100.00;101124.16;5003967;28;20479;-73
2023/07/20 05:58:24;;;;;;;16.92;8.68;;;;;;;15.59;100.00;101117.88;5005038;28;20133;-74
2023/07/20 06:00:50;;;;;;;16.92;8.38;;;;;;;15.52;100.00;101120.88;4990239;28;20053;-73
2023/07/20 06:03:17;;;;;;;16.27;7.50;;;;;;;15.52;100.00;101132.06;4994931;28;20065;-73
2023/07/20 06:05:45;;;;;;;15.52;8.77;;;;;;;15.41;100.00;101123.16;4990904;28;20136;-74
2023/07/20 06:08:12;;;;;;;18.30;8.45;;;;;;;15.39;100.00;101125.63;5006563;28;20057;-74
2023/07/20 06:10:38;;;;;;;16.38;8.15;;;;;;;15.40;100.00;101130.00;5005573;28;20123;-74
2023/07/20 06:13:06;;;;;;;16.40;7.80;;;;;;;15.29;100.00;101135.06;5005438;28;20414;-73
2023/07/20 06:15:35;;;;;;;15.90;8.55;;;;;;;15.32;100.00;101131.38;4984478;28;20062;-73
2023/07/20 06:18:03;;;;;;;14.00;8.00;;;;;;;15.29;100.00;101137.84;4989558;28;20049;-74
2023/07/20 06:20:30;;;;;;;17.15;8.98;;;;;;;15.26;100.00;101141.53;5005443;28;20581;-75
2023/07/20 06:22:57;;;;;;;18.33;8.60;;;;;;;15.16;100.00;101142.63;5006634;28;20046;-74
2023/07/20 06:25:24;;;;;;;16.58;7.90;;;;;;;15.12;100.00;101138.31;5002061;28;20057;-73
2023/07/20 06:27:53;;;;;;;16.17;8.55;;;;;;;15.12;100.00;101153.09;4999513;28;20050;-74
2023/07/20 06:30:20;;;;;;;16.20;9.00;;;;;;;15.14;100.00;101147.84;5002813;28;20060;-73
2023/07/20 06:32:47;;;;;;;18.40;9.68;;;;;;;15.15;100.00;101151.47;4998112;28;20049;-72
2023/07/20 06:35:15;;;;;;;18.77;9.55;;;;;;;15.16;100.00;101159.44;5008263;28;20046;-73
2023/07/20 06:37:41;;;;;;;18.88;9.25;;;;;;;15.19;100.00;101147.31;5007914;28;20160;-74
2023/07/20 06:40:09;;;;;;;18.63;9.07;;;;;;;15.22;100.00;101151.28;5002068;28;20119;-76
2023/07/20 06:42:38;;;;;;;19.00;10.48;;;;;;;15.20;100.00;101148.91;4926331;29;20126;-76
2023/07/20 06:45:08;;;;;;;18.25;9.43;;;;;;;15.26;100.00;101151.97;4926810;29;20219;-74
2023/07/20 06:47:35;;;;;;;18.30;10.23;;;;;;;15.28;100.00;101155.09;4906592;29;20092;-73
2023/07/20 06:50:02;;;;;;;20.02;10.23;;;;;;;15.39;100.00;101147.25;4927640;29;20066;-74
2023/07/20 06:52:29;;;;;;;18.48;10.73;;;;;;;15.51;100.00;101149.31;4926489;29;20704;-72
2023/07/20 06:54:55;;;;;;;18.42;10.88;;;;;;;15.58;100.00;101147.13;4907343;29;20066;-72
2023/07/20 06:57:22;;;;;;;19.42;10.70;;;;;;;15.66;100.00;101142.13;4923034;29;20057;-74
2023/07/20 06:59:49;;;;;;;19.60;10.52;;;;;;;15.77;100.00;101146.22;4926450;28;20074;-71
2023/07/20 07:02:15;;;;;;;22.50;11.52;;;;;;;15.86;100.00;101151.19;5002453;28;20047;-72
2023/07/20 07:04:42;;;;;;;19.02;11.18;;;;;;;15.96;100.00;101156.47;5005644;28;20061;-73
2023/07/20 07:07:09;;;;;;;19.85;11.15;;;;;;;16.01;100.00;101146.72;5007941;28;20069;-73
2023/07/20 07:09:36;;;;;;;16.60;9.82;;;;;;;16.02;100.00;101143.47;5001992;28;20069;-72
2023/07/20 07:12:04;;;;;;;17.23;9.93;;;;;;;16.12;100.00;101144.38;5005471;28;20620;-74
2023/07/20 07:14:30;;;;;;;15.60;8.63;;;;;;;16.00;100.00;101143.13;5007068;28;20814;-73
2023/07/20 07:16:59;;;;;;;14.80;8.63;;;;;;;16.14;100.00;101145.50;5002769;28;20084;-73
2023/07/20 07:19:30;;;;;;;15.50;8.40;;;;;;;16.36;100.00;101154.13;5005142;28;20069;-73
2023/07/20 07:21:57;;;;;;;13.18;7.15;;;;;;;16.55;100.00;101156.75;5007307;28;20049;-75
2023/07/20 07:24:27;;;;;;;13.07;7.18;;;;;;;16.64;100.00;101153.28;5003895;28;20038;-74
2023/07/20 07:26:55;;;;;;;21.27;12.60;;;;;;;16.65;100.00;101149.97;4984393;28;20157;-74
2023/07/20 07:29:22;;;;;;;20.70;12.50;;;;;;;16.68;100.00;101151.91;5002699;28;20046;-73
2023/07/20 07:31:48;;;;;;;20.70;13.02;;;;;;;16.76;100.00;101152.47;5006465;28;20077;-72
2023/07/20 07:34:15;;;;;;;19.02;11.77;;;;;;;16.77;100.00;101157.63;5010777;28;20129;-73
2023/07/20 07:36:41;;;;;;;16.77;10.00;;;;;;;16.84;100.00;101165.84;5011436;28;20058;-73
2023/07/20 07:39:09;;;;;;;18.88;9.73;;;;;;;16.82;100.00;101157.09;5010405;28;20096;-72
2023/07/20 07:41:39;;;;;;;16.40;9.40;;;;;;;16.86;100.00;101156.97;4996500;28;20117;-72
2023/07/20 07:44:06;;;;;;;14.15;7.80;;;;;;;16.91;100.00;101145.94;5000952;28;20056;-73
2023/07/20 07:46:34;;;;;;;14.80;7.15;;;;;;;17.06;100.00;101158.31;5006261;28;20050;-73
2023/07/20 07:49:01;;;;;;;14.65;7.15;;;;;;;17.15;100.00;101160.44;5011436;28;20554;-72
2023/07/20 07:51:48;;;;;;;11.23;6.85;;;;;;;17.29;100.00;101165.59;5010819;28;20053;-72
2023/07/20 07:54:24;;;;;;;11.65;5.95;;;;;;;17.42;100.00;101162.75;5008347;28;20413;-73
2023/07/20 07:56:57;;;;;;;10.93;5.60;;;;;;;17.60;100.00;101162.91;5007240;28;20061;-72
2023/07/20 07:59:24;;;;;;;12.35;6.07;;;;;;;17.69;100.00;101158.16;4990261;28;20073;-73
2023/07/20 08:02:04;;;;;;;10.88;6.18;;;;;;;17.75;100.00;101150.69;5009572;28;20108;-73
2023/07/20 08:04:33;;;;;;;13.25;7.18;;;;;;;17.87;100.00;101152.69;5006317;28;20050;-70
2023/07/20 08:07:03;;;;;;;11.10;6.85;;;;;;;17.98;100.00;101158.72;4999301;28;20494;-70
2023/07/20 08:09:30;;;;;;;17.25;9.18;;;;;;;18.13;100.00;101156.19;5000754;28;20061;-71
2023/07/20 08:11:57;;;;;;;15.43;7.53;;;;;;;18.19;100.00;101162.78;5003687;28;20058;-75
2023/07/20 08:14:24;;;;;;;14.85;8.15;;;;;;;18.22;100.00;101156.22;5006507;28;20073;-73
2023/07/20 08:16:50;;;;;;;12.02;6.95;;;;;;;18.30;100.00;101160.34;5003119;28;20049;-73
2023/07/20 08:19:17;;;;;;;9.65;5.95;;;;;;;18.40;100.00;101162.75;5001274;28;20053;-73
2023/07/20 08:21:44;;;;;;;9.10;5.35;;;;;;;18.52;100.00;101169.53;5002783;28;20121;-73
2023/07/20 08:24:10;;;;;;;9.20;4.80;;;;;;;18.59;100.00;101163.63;5005118;28;20084;-74
2023/07/20 08:26:37;;;;;;;14.70;6.05;;;;;;;18.69;100.00;101166.03;5000533;28;20054;-74
2023/07/20 08:29:03;;;;;;;7.32;5.05;;;;;;;18.78;100.00;101163.28;5008716;28;20395;-74
2023/07/20 08:31:30;;;;;;;8.98;4.40;;;;;;;18.74;100.00;101159.03;5005752;28;20510;-74
2023/07/20 08:33:57;;;;;;;7.15;3.38;;;;;;;18.94;100.00;101177.09;5005941;28;20050;-74
2023/07/20 08:36:24;;;;;;;5.20;2.78;;;;;;;18.91;100.00;101166.00;5002864;28;20050;-74
2023/07/20 08:38:51;;;;;;;2.95;2.35;;;;;;;18.98;100.00;101168.53;5006617;28;20521;-74
2023/07/20 08:41:18;;;;;;;5.38;2.33;;;;;;;18.94;100.00;101168.66;5002913;28;20396;-74
2023/07/20 08:43:46;;;;;;;2.53;1.77;;;;;;;19.00;100.00;101166.03;5003155;28;20441;-74
2023/07/20 08:46:14;;;;;;;2.75;1.42;;;;;;;18.98;100.00;101168.53;5007204;28;20046;-73
2023/07/20 08:48:42;;;;;;;3.05;1.50;;;;;;;18.98;100.00;101165.69;5002172;28;20513;-73
2023/07/20 08:51:11;;;;;;;2.25;1.40;;;;;;;18.93;100.00;101155.03;4992729;28;20078;-74
2023/07/20 08:53:38;;;;;;;4.60;3.35;;;;;;;18.93;100.00;101158.63;5002618;28;20054;-74
2023/07/20 08:56:06;;;;;;;3.65;2.60;;;;;;;18.94;100.00;101165.84;5006576;28;20478;-74
2023/07/20 08:58:35;;;;;;;4.65;1.80;;;;;;;19.10;100.00;101165.59;5009429;28;20070;-73
2023/07/20 09:01:02;;;;;;;4.82;2.00;;;;;;;19.24;100.00;101164.22;4995326;28;20133;-74
2023/07/20 09:03:29;;;;;;;4.38;2.20;;;;;;;19.35;100.00;101168.13;5004661;28;20411;-73
2023/07/20 09:05:55;;;;;;;6.38;3.53;;;;;;;19.32;100.00;101155.00;4993440;28;20133;-73
2023/07/20 09:08:22;;;;;;;6.80;3.97;;;;;;;19.35;100.00;101162.50;5007755;28;20053;-74
2023/07/20 09:10:48;;;;;;;13.30;5.05;;;;;;;19.49;100.00;101161.16;5007536;28;20468;-75
2023/07/20 09:13:15;;;;;;;8.20;5.20;;;;;;;19.27;100.00;101168.91;5003983;28;20057;-74
2023/07/20 09:15:47;;;;;;;9.65;6.18;;;;;;;18.90;100.00;101161.63;5001227;28;20051;-74
2023/07/20 09:18:27;;;;;;;11.15;6.20;;;;;;;18.88;100.00;101167.72;5002900;28;20649;-73
2023/07/20 09:21:06;;;;;;;9.60;5.93;;;;;;;18.90;100.00;101168.00;5004944;28;20077;-74
2023/07/20 09:23:41;;;;;;;8.95;5.18;;;;;;;18.91;100.00;101169.56;5004000;28;20739;-74
2023/07/20 09:26:13;;;;;;;6.50;3.85;;;;;;;19.12;100.00;101171.53;5005111;28;20053;-74
2023/07/20 09:28:52;;;;;;;6.28;3.35;;;;;;;19.31;100.00;101167.50;5006236;28;20053;-75
2023/07/20 09:31:22;;;;;;;5.65;3.65;;;;;;;19.48;100.00;101177.28;5003117;28;20061;-74
2023/07/20 09:33:53;;;;;;;6.82;2.97;;;;;;;19.54;100.00;101169.75;5003675;28;20062;-74
2023/07/20 09:36:26;;;;;;;;;;;;;;;19.80;100.00;101175.88;4999168;28;20046;-74
2023/07/20 09:39:12;;;;;;;5.93;4.22;;;;;;;19.85;100.00;101152.72;4997767;28;19933;-75
2023/07/20 09:41:43;;;;;;;8.63;3.15;;;;;;;19.97;100.00;101170.69;4997940;28;20606;-73
2023/07/20 09:44:14;;;;;;;4.65;2.67;;;;;;;19.98;100.00;101173.06;4999293;28;20513;-72
2023/07/20 09:46:48;;;;;;;4.82;2.70;;;;;;;19.61;100.00;101171.47;4999262;28;20086;-69
2023/07/20 09:49:18;;;;;;;3.78;2.85;;;;;;;19.73;100.00;101157.25;4971513;28;20176;-70
2023/07/20 09:51:51;;;;;;;4.75;2.83;;;;;;;19.60;100.00;101158.66;4976095;28;20141;-72
2023/07/20 09:54:21;;;;;;;4.05;2.85;;;;;;;19.64;100.00;101164.91;4972263;28;20463;-71
2023/07/20 09:56:48;;;;;;;6.28;3.17;;;;;;;19.69;100.00;101164.31;4973080;28;20084;-73
2023/07/20 09:59:15;;;;;;;4.53;2.58;;;;;;;19.68;100.00;101152.22;4980574;28;20093;-73
2023/07/20 10:01:43;;;;;;;4.00;1.85;;;;;;;19.62;100.00;101156.91;4975225;28;20066;-74
2023/07/20 10:04:12;;;;;;;5.40;2.15;;;;;;;19.96;100.00;101158.66;4978188;28;20050;-75
2023/07/20 10:06:42;;;;;;;4.28;2.05;;;;;;;20.21;100.00;101163.19;4981568;28;20506;-75
2023/07/20 10:09:12;;;;;;;2.50;2.08;;;;;;;20.06;100.00;101160.22;5004963;28;20465;-73
2023/07/20 10:11:43;;;;;;;2.55;1.90;;;;;;;20.25;100.00;101166.63;5002423;28;20117;-74
2023/07/20 10:14:16;;;;;;;4.00;2.20;;;;;;;20.33;100.00;101160.19;4997785;28;20125;-73
2023/07/20 10:16:57;;;;;;;3.72;2.50;;;;;;;20.45;100.00;101156.38;4999757;28;20053;-74
2023/07/20 10:19:52;;;;;;;3.00;2.00;;;;;;;20.51;100.00;101159.34;4989903;28;20042;-73
2023/07/20 10:22:25;;;;;;;;;;;;;;;20.75;100.00;101163.81;4999749;28;20074;-72
2023/07/20 10:24:54;;;;;;;3.13;1.80;;;;;;;20.99;100.00;101155.44;4990075;28;19929;-74
2023/07/20 10:27:21;;;;;;;1.90;1.70;;;;;;;21.23;100.00;101157.00;4987554;28;20088;-72
2023/07/20 10:29:48;;;;;;;3.13;1.80;;;;;;;21.46;100.00;101161.06;5005050;28;20152;-74
2023/07/20 10:32:15;;;;;;;2.80;1.70;;;;;;;21.31;100.00;101149.72;5003746;28;20050;-74
2023/07/20 10:34:42;;;;;;;2.88;1.60;;;;;;;21.19;100.00;101147.13;5002227;28;20054;-73
2023/07/20 10:37:08;;;;;;;3.90;1.60;;;;;;;21.22;100.00;101148.97;5003990;28;20053;-73
2023/07/20 10:39:35;;;;;;;4.70;2.17;;;;;;;21.06;100.00;101143.75;4987998;28;20518;-73
2023/07/20 10:42:03;;;;;;;2.50;1.60;;;;;;;21.16;100.00;101151.69;4992333;28;20054;-70
2023/07/20 10:44:31;;;;;;;2.38;1.50;;;;;;;21.38;100.00;101145.75;4999218;28;20156;-74
2023/07/20 10:47:02;;;;;;;3.83;1.55;;;;;;;21.25;100.00;101146.00;5004669;28;20054;-73
2023/07/20 10:49:33;;;;;;;1.85;1.55;;;;;;;21.26;100.00;101153.19;5000470;28;20576;-73
2023/07/20 10:52:04;;;;;;;2.80;1.40;;;;;;;21.36;100.00;101149.06;5001705;28;20050;-73
2023/07/20 10:54:31;;;;;;;2.00;1.20;;;;;;;21.57;100.00;101138.69;4999516;28;20122;-72
2023/07/20 10:57:30;;;;;;;2.95;1.70;;;;;;;21.77;100.00;101144.53;5001678;28;20132;-74
2023/07/20 11:00:11;;;;;;;3.45;1.90;;;;;;;21.85;100.00;101142.88;4996165;28;20642;-74
2023/07/20 11:02:45;;;;;;;1.08;0.88;;;;;;;21.55;100.00;101136.34;5004676;28;20057;-74
2023/07/20 11:05:40;;;;;;;1.08;0.98;;;;;;;21.68;100.00;101138.94;5004657;28;20050;-73
2023/07/20 11:08:12;;;;;;;1.67;1.20;;;;;;;22.01;100.00;101137.53;5000047;28;20041;-74
2023/07/20 11:10:39;;;;;;;4.13;1.42;;;;;;;22.04;100.00;101132.97;4995872;28;20230;-75
2023/07/20 11:13:16;;;;;;;4.10;1.13;;;;;;;22.04;100.00;101125.22;5001354;28;20467;-75
2023/07/20 11:16:00;;;;;;;3.80;1.10;;;;;;;22.31;100.00;101129.09;5003618;28;20124;-75